createdAt,value
2017-11-09T00:00:06.393Z,6.20
2017-11-09T00:02:32.997Z,6.20
2017-11-09T00:05:05.525Z,6.10
2017-11-09T00:07:32.050Z,6.10
2017-11-09T00:09:58.548Z,6.10
2017-11-09T00:12:25.015Z,6.10
2017-11-09T00:14:54.343Z,6.10
2017-11-09T00:17:20.881Z,6.20
2017-11-09T00:19:47.416Z,6.20
2017-11-09T00:22:13.953Z,6.20
2017-11-09T00:24:40.400Z,6.10
2017-11-09T00:27:06.908Z,6.10
2017-11-09T00:29:33.398Z,6.10
2017-11-09T00:31:59.921Z,6.10
2017-11-09T00:34:26.372Z,6.10
2017-11-09T00:36:52.828Z,6.10
2017-11-09T00:39:19.312Z,6.20
2017-11-09T00:41:45.759Z,6.20
2017-11-09T00:44:12.237Z,6.20
2017-11-09T00:46:38.676Z,6.20
2017-11-09T00:49:05.284Z,6.10
2017-11-09T00:51:31.735Z,6.10
2017-11-09T00:53:58.266Z,6.10
2017-11-09T00:56:24.757Z,6.10
2017-11-09T00:58:52.033Z,6.00
2017-11-09T01:01:18.504Z,6.00
2017-11-09T01:03:44.960Z,6.10
2017-11-09T01:06:11.424Z,6.10
2017-11-09T01:08:38.645Z,6.10
2017-11-09T01:11:05.124Z,6.10
2017-11-09T01:13:32.438Z,6.10
2017-11-09T01:15:58.916Z,6.10
2017-11-09T01:18:26.106Z,6.00
2017-11-09T01:20:52.554Z,6.00
2017-11-09T01:23:19.097Z,6.10
2017-11-09T01:25:45.574Z,6.10
2017-11-09T01:28:12.069Z,6.10
2017-11-09T01:30:38.581Z,6.10
2017-11-09T01:33:05.788Z,6.00
2017-11-09T01:35:39.221Z,6.00
2017-11-09T01:38:05.713Z,5.90
2017-11-09T01:40:32.385Z,5.90
2017-11-09T01:42:59.030Z,5.90
2017-11-09T01:45:25.504Z,5.90
2017-11-09T01:47:52.895Z,5.90
2017-11-09T01:50:19.409Z,5.90
2017-11-09T01:52:46.636Z,5.80
2017-11-09T01:55:13.134Z,5.80
2017-11-09T01:57:39.587Z,5.80
2017-11-09T02:00:06.061Z,5.80
2017-11-09T02:02:32.645Z,5.80
2017-11-09T02:04:59.109Z,5.80
2017-11-09T02:07:25.559Z,5.80
2017-11-09T02:09:52.050Z,5.80
2017-11-09T02:12:18.838Z,5.80
2017-11-09T02:14:45.257Z,5.80
2017-11-09T02:17:11.692Z,5.70
2017-11-09T02:19:38.156Z,5.70
2017-11-09T02:22:04.825Z,5.70
2017-11-09T02:24:31.297Z,5.80
2017-11-09T02:26:57.824Z,5.80
2017-11-09T02:29:24.348Z,5.80
2017-11-09T02:31:50.791Z,5.80
2017-11-09T02:34:17.326Z,5.90
2017-11-09T02:36:43.819Z,5.90
2017-11-09T02:39:10.306Z,5.90
2017-11-09T02:41:38.226Z,5.80
2017-11-09T02:44:04.740Z,5.80
2017-11-09T02:46:32.006Z,5.80
2017-11-09T02:48:58.467Z,5.80
2017-11-09T02:51:24.931Z,5.80
2017-11-09T02:53:51.436Z,5.80
2017-11-09T02:56:17.857Z,5.80
2017-11-09T02:58:45.057Z,5.70
2017-11-09T03:01:11.513Z,5.70
2017-11-09T03:03:38.729Z,5.70
2017-11-09T03:06:05.228Z,5.70
2017-11-09T03:08:32.476Z,5.70
2017-11-09T03:10:58.960Z,5.70
2017-11-09T03:13:25.419Z,5.70
2017-11-09T03:15:51.849Z,5.70
2017-11-09T03:18:18.307Z,5.70
2017-11-09T03:20:44.733Z,5.70
2017-11-09T03:23:11.194Z,5.70
2017-11-09T03:25:37.640Z,5.70
2017-11-09T03:28:04.096Z,5.80
2017-11-09T03:30:31.310Z,5.80
2017-11-09T03:32:57.765Z,5.80
2017-11-09T03:35:24.216Z,5.80
2017-11-09T03:37:50.649Z,5.80
2017-11-09T03:40:17.133Z,5.80
2017-11-09T03:42:43.613Z,5.80
2017-11-09T03:45:10.032Z,5.80
2017-11-09T03:47:36.531Z,5.90
2017-11-09T03:50:03.734Z,5.90
2017-11-09T03:52:30.158Z,5.90
2017-11-09T03:54:56.628Z,5.80
2017-11-09T03:57:23.080Z,5.80
2017-11-09T03:59:49.507Z,5.80
2017-11-09T04:02:16.005Z,5.90
2017-11-09T04:04:42.457Z,5.80
2017-11-09T04:07:09.459Z,5.90
2017-11-09T04:09:35.901Z,5.80
2017-11-09T04:12:02.345Z,5.80
2017-11-09T04:14:29.569Z,5.80
2017-11-09T04:16:56.013Z,5.80
2017-11-09T04:19:22.469Z,5.80
2017-11-09T04:21:48.911Z,5.80
2017-11-09T04:24:15.370Z,5.70
2017-11-09T04:26:42.552Z,5.70
2017-11-09T04:29:09.058Z,5.70
2017-11-09T04:31:36.237Z,5.70
2017-11-09T04:34:02.703Z,5.70
2017-11-09T04:36:29.236Z,5.70
2017-11-09T04:38:55.675Z,5.70
2017-11-09T04:41:22.137Z,5.80
2017-11-09T04:43:48.581Z,5.80
2017-11-09T04:46:15.245Z,5.90
2017-11-09T04:48:41.692Z,5.80
2017-11-09T04:51:08.959Z,5.90
2017-11-09T04:53:36.165Z,5.80
2017-11-09T04:56:03.501Z,5.80
2017-11-09T04:58:29.939Z,5.70
2017-11-09T05:00:56.433Z,5.70
2017-11-09T05:03:22.877Z,5.60
2017-11-09T05:05:50.053Z,5.60
2017-11-09T05:08:17.389Z,5.70
2017-11-09T05:10:44.615Z,5.70
2017-11-09T05:13:11.119Z,5.70
2017-11-09T05:15:37.548Z,5.70
2017-11-09T05:18:04.819Z,5.70
2017-11-09T05:20:31.358Z,5.70
2017-11-09T05:22:57.780Z,5.60
2017-11-09T05:25:25.110Z,5.70
2017-11-09T05:27:51.544Z,5.60
2017-11-09T05:30:18.017Z,5.60
2017-11-09T05:32:45.201Z,5.60
2017-11-09T05:35:11.666Z,5.60
2017-11-09T05:37:38.090Z,5.60
2017-11-09T05:40:04.529Z,5.60
2017-11-09T05:42:31.097Z,5.60
2017-11-09T05:44:57.569Z,5.60
2017-11-09T05:47:24.787Z,5.60
2017-11-09T05:49:51.249Z,5.60
2017-11-09T05:52:18.447Z,5.60
2017-11-09T05:54:45.074Z,5.60
2017-11-09T05:57:11.589Z,5.60
2017-11-09T05:59:38.820Z,5.60
2017-11-09T06:02:05.304Z,5.60
2017-11-09T06:04:32.508Z,5.50
2017-11-09T06:06:59.181Z,5.50
2017-11-09T06:09:26.438Z,5.60
2017-11-09T06:11:52.984Z,5.50
2017-11-09T06:14:20.285Z,5.60
2017-11-09T06:16:46.776Z,5.60
2017-11-09T06:19:13.251Z,5.60
2017-11-09T06:21:39.725Z,5.70
2017-11-09T06:24:06.163Z,5.70
2017-11-09T06:26:32.837Z,5.70
2017-11-09T06:28:59.430Z,5.70
2017-11-09T06:31:25.927Z,5.70
2017-11-09T06:33:53.179Z,5.70
2017-11-09T06:36:20.381Z,5.60
2017-11-09T06:38:46.818Z,5.60
2017-11-09T06:41:13.265Z,5.70
2017-11-09T06:43:39.683Z,5.70
2017-11-09T06:46:06.149Z,5.80
2017-11-09T06:48:32.799Z,5.80
2017-11-09T06:50:59.296Z,5.80
2017-11-09T06:53:25.764Z,5.80
2017-11-09T06:55:52.184Z,5.80
2017-11-09T06:58:18.687Z,5.70
2017-11-09T07:00:45.171Z,5.70
2017-11-09T07:03:11.733Z,5.70
2017-11-09T07:05:38.268Z,5.70
2017-11-09T07:08:04.815Z,5.70
2017-11-09T07:10:32.344Z,5.70
2017-11-09T07:12:58.805Z,5.60
2017-11-09T07:15:25.266Z,5.70
2017-11-09T07:17:51.887Z,5.70
2017-11-09T07:20:18.391Z,5.70
2017-11-09T07:22:44.866Z,5.80
2017-11-09T07:25:11.305Z,5.70
2017-11-09T07:27:37.764Z,5.70
2017-11-09T07:30:04.204Z,5.80
2017-11-09T07:32:30.725Z,5.90
2017-11-09T07:34:57.218Z,5.80
2017-11-09T07:37:24.401Z,5.90
2017-11-09T07:39:51.017Z,5.90
2017-11-09T07:42:18.195Z,5.90
2017-11-09T07:44:44.687Z,5.90
2017-11-09T07:47:11.189Z,6.00
2017-11-09T07:49:37.625Z,6.00
2017-11-09T07:52:04.089Z,6.10
2017-11-09T07:54:30.553Z,6.20
2017-11-09T07:56:57.014Z,6.20
2017-11-09T07:59:24.299Z,6.20
2017-11-09T08:01:50.738Z,6.20
2017-11-09T08:04:17.220Z,6.20
2017-11-09T08:06:43.669Z,6.20
2017-11-09T08:09:10.153Z,6.20
2017-11-09T08:11:36.621Z,6.10
2017-11-09T08:14:03.098Z,6.10
2017-11-09T08:16:30.284Z,6.00
2017-11-09T08:18:56.748Z,6.00
2017-11-09T08:21:23.263Z,6.10
2017-11-09T08:23:49.721Z,6.10
2017-11-09T08:26:19.215Z,6.10
2017-11-09T08:28:51.325Z,6.20
2017-11-09T08:31:19.041Z,6.10
2017-11-09T08:33:45.524Z,6.10
2017-11-09T08:36:11.973Z,6.20
2017-11-09T08:38:38.428Z,6.20
2017-11-09T08:41:05.602Z,6.40
2017-11-09T08:43:32.824Z,6.40
2017-11-09T08:45:59.249Z,6.40
2017-11-09T08:48:25.701Z,6.50
2017-11-09T08:50:52.185Z,6.50
2017-11-09T08:53:18.625Z,6.50
2017-11-09T08:55:45.185Z,6.60
2017-11-09T08:58:11.605Z,6.70
2017-11-09T09:00:38.046Z,6.70
2017-11-09T09:03:04.506Z,6.70
2017-11-09T09:05:31.170Z,6.80
2017-11-09T09:07:57.877Z,6.80
2017-11-09T09:10:24.331Z,6.80
2017-11-09T09:12:50.963Z,6.70
2017-11-09T09:15:17.428Z,6.60
2017-11-09T09:17:43.919Z,6.60
2017-11-09T09:20:10.349Z,6.50
2017-11-09T09:22:39.424Z,6.60
2017-11-09T09:25:13.958Z,6.60
2017-11-09T09:27:40.541Z,6.70
2017-11-09T09:30:07.897Z,6.70
2017-11-09T09:32:36.463Z,6.70
2017-11-09T09:35:12.262Z,6.50
2017-11-09T09:37:43.756Z,6.50
2017-11-09T09:40:12.753Z,6.60
2017-11-09T09:42:39.929Z,6.60
2017-11-09T09:45:06.389Z,6.60
2017-11-09T09:47:32.896Z,6.70
2017-11-09T09:50:00.225Z,6.70
2017-11-09T09:52:26.741Z,6.70
2017-11-09T09:54:53.268Z,6.70
2017-11-09T09:57:19.741Z,6.70
2017-11-09T09:59:46.189Z,6.80
2017-11-09T10:02:13.418Z,6.80
2017-11-09T10:04:39.870Z,6.80
2017-11-09T10:07:06.448Z,6.80
2017-11-09T10:09:33.982Z,7.00
2017-11-09T10:12:00.430Z,7.00
2017-11-09T10:14:26.878Z,7.10
2017-11-09T10:16:53.366Z,7.20
2017-11-09T10:19:19.856Z,7.30
2017-11-09T10:21:46.343Z,7.50
2017-11-09T10:24:12.849Z,7.70
2017-11-09T10:26:40.059Z,8.00
2017-11-09T10:29:06.602Z,8.00
2017-11-09T10:31:33.128Z,8.00
2017-11-09T10:34:02.433Z,8.00
2017-11-09T10:36:28.934Z,8.20
2017-11-09T10:38:56.322Z,8.00
2017-11-09T10:41:23.727Z,8.00
2017-11-09T10:43:50.248Z,8.00
2017-11-09T10:46:16.734Z,7.90
2017-11-09T10:48:44.010Z,7.90
2017-11-09T10:51:10.724Z,7.90
2017-11-09T10:53:37.904Z,7.80
2017-11-09T10:56:04.424Z,7.80
2017-11-09T10:58:31.677Z,7.70
2017-11-09T11:00:58.918Z,7.70
2017-11-09T11:03:25.475Z,7.70
2017-11-09T11:05:52.661Z,7.70
2017-11-09T11:08:19.578Z,7.70
2017-11-09T11:10:52.596Z,7.70
2017-11-09T11:13:19.107Z,7.70
2017-11-09T11:15:46.990Z,7.40
2017-11-09T11:18:14.393Z,7.30
2017-11-09T11:20:40.961Z,7.30
2017-11-09T11:23:07.526Z,7.30
2017-11-09T11:25:34.725Z,7.30
2017-11-09T11:28:01.163Z,7.30
2017-11-09T11:30:27.634Z,7.30
2017-11-09T11:32:54.109Z,7.30
2017-11-09T11:35:21.312Z,7.50
2017-11-09T11:37:47.825Z,7.60
2017-11-09T11:40:14.389Z,7.60
2017-11-09T11:42:40.834Z,7.60
2017-11-09T11:45:07.312Z,7.50
2017-11-09T11:47:34.574Z,7.40
2017-11-09T11:50:01.753Z,7.40
2017-11-09T11:52:28.240Z,7.40
2017-11-09T11:54:54.707Z,7.40
2017-11-09T11:57:21.934Z,7.50
2017-11-09T11:59:48.511Z,7.50
2017-11-09T12:02:16.636Z,7.90
2017-11-09T12:04:43.235Z,7.90
2017-11-09T12:07:10.505Z,7.60
2017-11-09T12:09:37.047Z,7.60
2017-11-09T12:12:03.593Z,7.60
2017-11-09T12:14:30.079Z,7.60
2017-11-09T12:16:56.614Z,7.70
2017-11-09T12:19:23.101Z,7.70
2017-11-09T12:21:49.556Z,7.60
2017-11-09T12:24:16.033Z,7.60
2017-11-09T12:26:42.508Z,7.70
2017-11-09T12:29:13.648Z,7.80
2017-11-09T12:31:41.003Z,7.70
2017-11-09T12:34:08.189Z,7.80
2017-11-09T12:36:34.673Z,7.70
2017-11-09T12:39:01.121Z,7.70
2017-11-09T12:41:28.337Z,7.70
2017-11-09T12:43:54.873Z,7.70
2017-11-09T12:46:21.351Z,7.60
2017-11-09T12:48:47.835Z,7.60
2017-11-09T12:51:14.291Z,7.50
2017-11-09T12:53:40.737Z,7.60
2017-11-09T12:56:07.258Z,7.60
2017-11-09T12:58:33.754Z,7.60
2017-11-09T13:01:00.192Z,7.50
2017-11-09T13:03:26.617Z,7.50
2017-11-09T13:05:53.105Z,7.50
2017-11-09T13:08:20.316Z,7.60
2017-11-09T13:10:46.832Z,7.50
2017-11-09T13:13:13.395Z,7.50
2017-11-09T13:15:39.931Z,7.40
2017-11-09T13:18:13.357Z,7.40
2017-11-09T13:20:39.900Z,7.30
2017-11-09T13:23:06.369Z,7.40
2017-11-09T13:25:32.835Z,7.30
2017-11-09T13:27:59.371Z,7.40
2017-11-09T13:30:25.813Z,7.50
2017-11-09T13:32:52.306Z,7.50
2017-11-09T13:35:19.691Z,7.50
2017-11-09T13:37:46.245Z,7.40
2017-11-09T13:40:12.885Z,7.40
2017-11-09T13:42:39.393Z,7.40
2017-11-09T13:45:06.604Z,7.40
2017-11-09T13:47:33.107Z,7.40
2017-11-09T13:49:59.561Z,7.30
2017-11-09T13:52:26.012Z,7.30
2017-11-09T13:54:54.310Z,7.30
2017-11-09T13:57:20.806Z,7.30
2017-11-09T13:59:47.297Z,7.40
2017-11-09T14:02:13.785Z,7.30
2017-11-09T14:04:40.265Z,7.40
2017-11-09T14:07:06.774Z,7.40
2017-11-09T14:09:33.277Z,7.40
2017-11-09T14:11:59.789Z,7.40
2017-11-09T14:14:26.264Z,7.30
2017-11-09T14:16:53.560Z,7.30
2017-11-09T14:19:20.085Z,7.30
2017-11-09T14:21:46.645Z,7.10
2017-11-09T14:24:13.108Z,7.20
2017-11-09T14:26:39.671Z,7.20
2017-11-09T14:29:06.168Z,7.20
2017-11-09T14:31:32.686Z,7.20
2017-11-09T14:33:59.189Z,7.20
2017-11-09T14:36:25.821Z,7.20
2017-11-09T14:38:52.331Z,7.10
2017-11-09T14:41:18.825Z,7.10
2017-11-09T14:43:46.062Z,7.30
2017-11-09T14:46:13.393Z,7.40
2017-11-09T14:48:39.876Z,7.30
2017-11-09T14:51:07.089Z,7.30
2017-11-09T14:53:33.603Z,7.30
2017-11-09T14:56:00.085Z,7.20
2017-11-09T14:58:26.653Z,7.20
2017-11-09T15:00:53.295Z,7.30
2017-11-09T15:03:19.791Z,7.10
2017-11-09T15:05:46.296Z,7.10
2017-11-09T15:08:12.881Z,7.00
2017-11-09T15:10:39.398Z,7.00
2017-11-09T15:13:05.849Z,7.10
2017-11-09T15:15:32.317Z,7.10
2017-11-09T15:17:58.786Z,7.10
2017-11-09T15:20:26.006Z,7.10
2017-11-09T15:22:52.580Z,7.10
2017-11-09T15:25:26.907Z,7.00
2017-11-09T15:27:54.156Z,7.00
2017-11-09T15:30:21.493Z,7.00
2017-11-09T15:32:49.873Z,7.00
2017-11-09T15:35:16.386Z,7.00
2017-11-09T15:37:42.854Z,7.00
2017-11-09T15:40:10.081Z,7.10
2017-11-09T15:42:36.564Z,7.10
2017-11-09T15:45:03.049Z,7.00
2017-11-09T15:47:29.638Z,7.10
2017-11-09T15:49:56.097Z,7.10
2017-11-09T15:52:23.324Z,7.00
2017-11-09T15:54:49.886Z,7.00
2017-11-09T15:57:16.428Z,7.10
2017-11-09T15:59:42.918Z,7.00
2017-11-09T16:02:09.449Z,7.00
2017-11-09T16:04:35.974Z,7.00
2017-11-09T16:07:02.468Z,7.00
2017-11-09T16:09:29.001Z,7.10
2017-11-09T16:11:55.613Z,7.10
2017-11-09T16:14:22.201Z,7.10
2017-11-09T16:16:48.902Z,7.10
2017-11-09T16:19:15.368Z,7.20
2017-11-09T16:21:41.951Z,7.10
2017-11-09T16:24:09.184Z,7.10
2017-11-09T16:26:36.520Z,7.10
2017-11-09T16:29:06.088Z,7.00
2017-11-09T16:31:32.601Z,7.00
2017-11-09T16:33:59.162Z,7.00
2017-11-09T16:36:33.288Z,7.00
2017-11-09T16:38:59.873Z,7.00
2017-11-09T16:41:26.356Z,7.00
2017-11-09T16:43:53.648Z,6.90
2017-11-09T16:46:20.136Z,6.90
2017-11-09T16:48:46.656Z,6.90
2017-11-09T16:51:13.278Z,6.90
2017-11-09T16:53:39.742Z,6.90
2017-11-09T16:56:06.252Z,7.00
2017-11-09T16:58:32.898Z,7.00
2017-11-09T17:00:59.425Z,7.00
2017-11-09T17:03:25.949Z,6.90
2017-11-09T17:05:52.453Z,7.00
2017-11-09T17:08:20.107Z,7.00
2017-11-09T17:10:47.944Z,7.00
2017-11-09T17:13:14.495Z,7.00
2017-11-09T17:15:41.024Z,6.90
2017-11-09T17:18:13.623Z,6.90
2017-11-09T17:20:40.085Z,6.80
2017-11-09T17:23:06.609Z,6.90
2017-11-09T17:25:33.127Z,6.90
2017-11-09T17:27:59.709Z,7.00
2017-11-09T17:30:26.220Z,6.90
2017-11-09T17:32:52.767Z,6.90
2017-11-09T17:35:19.333Z,6.90
2017-11-09T17:37:45.836Z,6.90
2017-11-09T17:40:17.857Z,6.90
2017-11-09T17:42:50.093Z,6.90
2017-11-09T17:45:16.670Z,6.90
2017-11-09T17:47:44.071Z,6.90
2017-11-09T17:50:10.591Z,6.90
2017-11-09T17:52:37.079Z,6.90
2017-11-09T17:55:03.561Z,6.80
2017-11-09T17:57:30.812Z,6.80
2017-11-09T18:00:01.924Z,6.80
2017-11-09T18:02:28.540Z,6.80
2017-11-09T18:04:55.400Z,6.80
2017-11-09T18:07:22.013Z,6.80
2017-11-09T18:09:48.528Z,6.80
2017-11-09T18:12:17.748Z,6.70
2017-11-09T18:14:45.776Z,6.80
2017-11-09T18:17:12.362Z,6.80
2017-11-09T18:19:39.004Z,6.80
2017-11-09T18:22:05.635Z,6.80
2017-11-09T18:24:32.890Z,6.80
2017-11-09T18:27:00.141Z,6.70
2017-11-09T18:29:27.352Z,6.70
2017-11-09T18:31:53.957Z,6.70
2017-11-09T18:34:21.323Z,6.70
2017-11-09T18:36:47.949Z,6.70
2017-11-09T18:39:15.214Z,6.60
2017-11-09T18:41:42.539Z,6.60
2017-11-09T18:44:09.349Z,6.60
2017-11-09T18:46:35.796Z,6.60
2017-11-09T18:49:02.358Z,6.60
2017-11-09T18:51:28.840Z,6.60
2017-11-09T18:53:56.078Z,6.70
2017-11-09T18:56:22.692Z,6.60
2017-11-09T18:58:49.186Z,6.70
2017-11-09T19:01:15.787Z,6.70
2017-11-09T19:03:43.108Z,6.70
2017-11-09T19:06:09.774Z,6.70
2017-11-09T19:08:37.233Z,6.70
2017-11-09T19:11:05.504Z,6.60
2017-11-09T19:13:32.152Z,6.60
2017-11-09T19:15:58.704Z,6.60
2017-11-09T19:18:25.231Z,6.60
2017-11-09T19:20:51.721Z,6.50
2017-11-09T19:23:18.290Z,6.50
2017-11-09T19:25:44.800Z,6.50
2017-11-09T19:28:12.061Z,6.50
2017-11-09T19:30:39.408Z,6.50
2017-11-09T19:46:11.582Z,6.50
2017-11-09T19:48:39.101Z,6.40
2017-11-09T19:51:05.779Z,6.40
2017-11-09T19:53:33.029Z,6.40
2017-11-09T19:56:01.070Z,6.50
2017-11-09T20:08:17.639Z,6.50
2017-11-09T20:20:35.120Z,6.10
2017-11-09T20:23:02.428Z,6.10
2017-11-09T20:25:29.141Z,6.10
2017-11-09T20:27:55.660Z,6.20
2017-11-09T20:30:22.980Z,6.30
2017-11-09T20:32:49.506Z,6.30
2017-11-09T20:35:16.081Z,6.30
2017-11-09T20:37:42.730Z,6.40
2017-11-09T20:40:10.062Z,6.30
2017-11-09T20:42:36.570Z,6.30
2017-11-09T20:45:04.239Z,6.30
2017-11-09T20:47:30.875Z,6.30
2017-11-09T20:49:57.530Z,6.30
2017-11-09T20:52:24.096Z,6.30
2017-11-09T20:54:50.575Z,6.40
2017-11-09T20:57:17.810Z,6.40
2017-11-09T20:59:44.344Z,6.30
2017-11-09T21:02:10.847Z,6.30
2017-11-09T21:04:37.430Z,6.30
2017-11-09T21:07:04.004Z,6.30
2017-11-09T21:09:31.323Z,6.20
2017-11-09T21:11:58.644Z,6.20
2017-11-09T21:14:25.283Z,6.20
2017-11-09T21:16:51.837Z,6.30
2017-11-09T21:19:18.414Z,6.30
2017-11-09T21:21:45.863Z,6.30
2017-11-09T21:24:12.370Z,6.30
2017-11-09T21:26:38.888Z,6.30
2017-11-09T21:38:50.543Z,6.30
2017-11-09T21:41:17.818Z,6.20
2017-11-09T21:43:45.799Z,6.20
2017-11-09T21:46:13.143Z,6.20
2017-11-09T21:48:54.585Z,6.20
2017-11-09T21:51:21.135Z,6.20
2017-11-09T21:53:47.636Z,6.10
2017-11-09T21:56:14.264Z,6.20
2017-11-09T21:58:41.501Z,6.20
2017-11-09T22:01:07.987Z,6.20
2017-11-09T22:03:34.728Z,6.20
2017-11-09T22:06:01.255Z,6.20
2017-11-09T22:08:27.880Z,6.30
2017-11-09T22:10:55.093Z,6.20
2017-11-09T22:13:21.631Z,6.20
2017-11-09T22:15:48.086Z,6.20
2017-11-09T22:18:14.533Z,6.30
2017-11-09T22:20:44.109Z,6.30
2017-11-09T22:23:10.566Z,6.20
2017-11-09T22:25:37.087Z,6.20
2017-11-09T22:28:03.541Z,6.20
2017-11-09T22:30:30.021Z,6.20
2017-11-09T22:32:57.227Z,6.30
2017-11-09T22:35:23.808Z,6.20
2017-11-09T22:37:50.257Z,6.20
2017-11-09T22:40:17.556Z,6.20
2017-11-09T22:42:44.066Z,6.20
2017-11-09T22:45:11.321Z,6.20
2017-11-09T22:47:38.633Z,6.30
2017-11-09T22:50:05.123Z,6.30
2017-11-09T22:52:32.409Z,6.30
2017-11-09T22:54:58.886Z,6.30
2017-11-09T22:57:26.931Z,6.20
2017-11-09T22:59:53.476Z,6.20
2017-11-09T23:02:19.977Z,6.20
2017-11-09T23:04:47.261Z,6.30
2017-11-09T23:07:13.752Z,6.30
2017-11-09T23:09:40.301Z,6.30
2017-11-09T23:12:07.616Z,6.30
2017-11-09T23:14:34.088Z,6.30
2017-11-09T23:17:00.571Z,6.30
2017-11-09T23:19:27.231Z,6.30
2017-11-09T23:21:53.701Z,6.30
2017-11-09T23:24:20.224Z,6.30
2017-11-09T23:26:46.728Z,6.30
2017-11-09T23:29:13.390Z,6.30
2017-11-09T23:31:39.843Z,6.20
2017-11-09T23:34:06.331Z,6.10
2017-11-09T23:36:33.687Z,6.10
2017-11-09T23:39:00.855Z,6.10
2017-11-09T23:41:28.108Z,6.10
2017-11-09T23:43:55.493Z,6.10
2017-11-09T23:46:21.993Z,6.10
2017-11-09T23:48:48.453Z,6.10
2017-11-09T23:51:15.697Z,6.20
2017-11-09T23:53:43.098Z,6.20
2017-11-09T23:56:09.580Z,6.10
2017-11-09T23:58:36.029Z,6.10
